createdAt,value
2019-02-18T00:00:50.169Z,0
2019-02-18T00:03:30.566Z,0
2019-02-18T00:06:30.940Z,0
2019-02-18T00:09:30.147Z,0
2019-02-18T00:12:30.602Z,0
2019-02-18T00:15:30.934Z,0
2019-02-18T00:18:30.333Z,0
2019-02-18T00:21:30.770Z,0
2019-02-18T00:24:31.126Z,0
2019-02-18T00:27:30.406Z,0
2019-02-18T00:30:30.756Z,0
2019-02-18T00:33:31.179Z,0
2019-02-18T00:36:30.499Z,0
2019-02-18T00:39:30.811Z,0
2019-02-18T00:42:30.111Z,0
2019-02-18T00:45:30.352Z,0
2019-02-18T00:48:30.673Z,0
2019-02-18T00:51:31.045Z,0
2019-02-18T00:54:30.580Z,0
2019-02-18T00:57:30.971Z,0
2019-02-18T01:00:30.514Z,0
2019-02-18T01:03:30.821Z,0
2019-02-18T01:06:30.224Z,0
2019-02-18T01:09:30.622Z,0
2019-02-18T01:12:31.018Z,0
2019-02-18T01:15:30.348Z,0
2019-02-18T01:18:30.749Z,0
2019-02-18T01:21:30.984Z,0
2019-02-18T01:24:30.457Z,0
2019-02-18T01:27:30.866Z,0
2019-02-18T01:30:30.331Z,0
2019-02-18T01:33:30.769Z,0
2019-02-18T01:36:31.158Z,0
2019-02-18T01:39:30.413Z,0
2019-02-18T01:42:30.904Z,0
2019-02-18T01:45:30.113Z,0
2019-02-18T01:48:30.354Z,0
2019-02-18T01:51:30.615Z,0
2019-02-18T01:54:31.070Z,0
2019-02-18T01:57:30.500Z,0
2019-02-18T02:00:30.875Z,0
2019-02-18T02:03:30.276Z,0
2019-02-18T02:06:30.914Z,0
2019-02-18T02:09:30.302Z,0
2019-02-18T02:12:30.717Z,0
2019-02-18T02:15:31.084Z,0
2019-02-18T02:18:30.597Z,0
2019-02-18T02:21:30.794Z,0
2019-02-18T02:24:30.182Z,0
2019-02-18T02:27:30.503Z,0
2019-02-18T02:30:30.784Z,0
2019-02-18T02:33:31.275Z,0
2019-02-18T02:36:30.646Z,0
2019-02-18T02:39:31.007Z,0
2019-02-18T02:42:30.470Z,0
2019-02-18T02:45:30.997Z,0
2019-02-18T02:48:30.541Z,0
2019-02-18T02:51:30.968Z,0
2019-02-18T02:54:30.276Z,0
2019-02-18T02:57:30.770Z,0
2019-02-18T03:00:31.098Z,0
2019-02-18T03:03:30.551Z,0
2019-02-18T03:06:30.955Z,0
2019-02-18T03:09:30.165Z,0
2019-02-18T03:12:30.595Z,0
2019-02-18T03:15:30.865Z,0
2019-02-18T03:18:30.354Z,0
2019-02-18T03:21:30.707Z,0
2019-02-18T03:24:31.136Z,0
2019-02-18T03:27:30.408Z,0
2019-02-18T03:30:43.140Z,0
2019-02-18T03:33:36.658Z,0
2019-02-18T03:36:31.058Z,0
2019-02-18T03:39:30.430Z,0
2019-02-18T03:42:30.868Z,0
2019-02-18T03:45:30.232Z,0
2019-02-18T03:48:30.669Z,0
2019-02-18T03:51:31.139Z,0
2019-02-18T03:54:30.548Z,0
2019-02-18T03:57:31.050Z,0
2019-02-18T04:00:30.433Z,0
2019-02-18T04:03:30.821Z,0
2019-02-18T04:06:30.301Z,0
2019-02-18T04:09:30.810Z,0
2019-02-18T04:12:30.200Z,0
2019-02-18T04:15:30.616Z,0
2019-02-18T04:18:31.162Z,0
2019-02-18T04:21:30.664Z,0
2019-02-18T04:24:31.066Z,0
2019-02-18T04:27:30.364Z,0
2019-02-18T04:30:30.991Z,0
2019-02-18T04:33:30.411Z,0
2019-02-18T04:36:31.153Z,0
2019-02-18T04:39:30.649Z,0
2019-02-18T04:42:30.901Z,0
2019-02-18T04:45:30.363Z,0
2019-02-18T04:48:30.627Z,0
2019-02-18T04:51:31.122Z,0
2019-02-18T04:54:30.655Z,0
2019-02-18T04:57:33.846Z,0
2019-02-18T05:00:30.263Z,0
2019-02-18T05:03:30.558Z,0
2019-02-18T05:06:31.112Z,0
2019-02-18T05:09:30.550Z,0
2019-02-18T05:12:30.868Z,0
2019-02-18T05:15:30.327Z,0
2019-02-18T05:18:30.908Z,0
2019-02-18T05:21:30.383Z,0
2019-02-18T05:24:30.898Z,0
2019-02-18T05:27:35.925Z,0
2019-02-18T05:30:31.930Z,0
2019-02-18T05:33:30.281Z,0
2019-02-18T05:36:30.682Z,0
2019-02-18T05:39:34.002Z,0
2019-02-18T05:42:30.460Z,0
2019-02-18T05:45:30.849Z,0
2019-02-18T05:48:30.291Z,0
2019-02-18T05:51:31.321Z,0
2019-02-18T05:54:30.791Z,0
2019-02-18T05:57:30.082Z,0
2019-02-18T06:00:30.813Z,1
2019-02-18T06:03:30.934Z,2
2019-02-18T06:06:30.596Z,2
2019-02-18T06:09:32.779Z,5
2019-02-18T06:12:31.352Z,8
2019-02-18T06:15:30.768Z,14
2019-02-18T06:18:30.351Z,26
2019-02-18T06:21:30.944Z,44
2019-02-18T06:24:30.340Z,71
2019-02-18T06:27:30.809Z,107
2019-02-18T06:30:30.260Z,150
2019-02-18T06:33:30.952Z,208
2019-02-18T06:36:30.511Z,281
2019-02-18T06:39:43.334Z,362
2019-02-18T06:42:30.746Z,470
2019-02-18T06:45:38.342Z,580
2019-02-18T06:48:35.066Z,722
2019-02-18T06:51:32.534Z,868
2019-02-18T06:54:31.047Z,1059
2019-02-18T06:57:43.209Z,1320
2019-02-18T07:00:42.658Z,1550
2019-02-18T07:03:54.593Z,1824
2019-02-18T07:06:37.610Z,1967
2019-02-18T07:09:37.329Z,2128
2019-02-18T07:12:34.267Z,2380
2019-02-18T07:15:30.975Z,2886
2019-02-18T07:18:30.561Z,3505
2019-02-18T07:21:30.908Z,3306
2019-02-18T07:24:30.854Z,3484
2019-02-18T07:27:30.304Z,3013
2019-02-18T07:30:30.703Z,3285
2019-02-18T07:33:31.186Z,3646
2019-02-18T07:36:30.535Z,4159
2019-02-18T07:39:31.119Z,5514
2019-02-18T07:42:30.600Z,5051
2019-02-18T07:45:31.031Z,5289
2019-02-18T07:48:30.386Z,5211
2019-02-18T07:51:30.963Z,4949
2019-02-18T07:54:30.316Z,5281
2019-02-18T07:57:30.781Z,4601
2019-02-18T08:00:31.265Z,5919
2019-02-18T08:03:30.619Z,5487
2019-02-18T08:06:31.110Z,6829
2019-02-18T08:09:30.541Z,9706
2019-02-18T08:12:31.026Z,10328
2019-02-18T08:15:30.495Z,10085
2019-02-18T08:18:31.044Z,10759
2019-02-18T08:21:30.570Z,9856
2019-02-18T08:24:31.050Z,7282
2019-02-18T08:27:30.504Z,9559
2019-02-18T08:30:31.220Z,13148
2019-02-18T08:33:30.811Z,23606
2019-02-18T08:36:30.270Z,21538
2019-02-18T08:39:30.729Z,24470
2019-02-18T08:42:31.374Z,29238
2019-02-18T08:45:30.776Z,32076
2019-02-18T08:48:31.099Z,34614
2019-02-18T08:51:30.535Z,40814
2019-02-18T08:54:30.977Z,33334
2019-02-18T08:57:30.348Z,37555
2019-02-18T09:00:22.477Z,36284
2019-02-18T09:03:22.018Z,32778
2019-02-18T09:06:31.035Z,37448
2019-02-18T09:09:31.810Z,38114
2019-02-18T09:12:30.401Z,34548
2019-02-18T09:15:31.257Z,34746
2019-02-18T09:18:31.065Z,32743
2019-02-18T09:21:32.115Z,27128
2019-02-18T09:24:35.507Z,26683
2019-02-18T09:27:31.285Z,42899
2019-02-18T09:30:33.798Z,46472
2019-02-18T09:33:30.982Z,54612
2019-02-18T09:36:30.676Z,41198
2019-02-18T09:39:34.308Z,44570
2019-02-18T09:42:31.154Z,54612
2019-02-18T09:45:30.878Z,40579
2019-02-18T09:48:21.385Z,34211
2019-02-18T09:51:21.999Z,36145
2019-02-18T09:54:30.804Z,39966
2019-02-18T09:57:21.266Z,42601
2019-02-18T10:00:30.828Z,39182
2019-02-18T10:03:34.594Z,41240
2019-02-18T10:06:31.168Z,33678
2019-02-18T10:09:31.330Z,45880
2019-02-18T10:12:34.755Z,39795
2019-02-18T10:15:36.982Z,44154
2019-02-18T10:18:31.356Z,28322
2019-02-18T10:21:36.130Z,31207
2019-02-18T10:24:35.583Z,54612
2019-02-18T10:27:31.754Z,36677
2019-02-18T10:30:31.511Z,28785
2019-02-18T10:33:31.580Z,28037
2019-02-18T10:36:31.443Z,27178
2019-02-18T10:39:32.438Z,54612
2019-02-18T10:42:31.441Z,54612
2019-02-18T10:45:36.507Z,38808
2019-02-18T10:48:31.470Z,14319
2019-02-18T10:51:31.036Z,13865
2019-02-18T10:54:30.924Z,13877
2019-02-18T10:57:31.165Z,14078
2019-02-18T11:00:30.920Z,14975
2019-02-18T11:03:35.563Z,15423
2019-02-18T11:06:31.319Z,15446
2019-02-18T11:09:31.047Z,15174
2019-02-18T11:12:30.589Z,25952
2019-02-18T11:15:31.399Z,44894
2019-02-18T11:18:31.239Z,54612
2019-02-18T11:21:30.926Z,54612
2019-02-18T11:24:30.622Z,54612
2019-02-18T11:27:31.245Z,54612
2019-02-18T11:30:31.149Z,27798
2019-02-18T11:33:30.857Z,54612
2019-02-18T11:36:31.132Z,54612
2019-02-18T11:39:41.200Z,54612
2019-02-18T11:42:31.248Z,39255
2019-02-18T11:45:30.968Z,42348
2019-02-18T11:48:30.617Z,9732
2019-02-18T11:51:31.427Z,9593
2019-02-18T11:54:31.111Z,9535
2019-02-18T11:57:31.736Z,9482
2019-02-18T12:00:30.776Z,9578
2019-02-18T12:03:30.757Z,9822
2019-02-18T12:06:31.541Z,10477
2019-02-18T12:09:33.482Z,9681
2019-02-18T12:12:31.535Z,8853
2019-02-18T12:15:30.584Z,8748
2019-02-18T12:18:31.656Z,8698
2019-02-18T12:21:36.640Z,8590
2019-02-18T12:24:31.505Z,8536
2019-02-18T12:27:32.196Z,8499
2019-02-18T12:30:32.497Z,8410
2019-02-18T12:33:31.645Z,8264
2019-02-18T12:36:31.366Z,8173
2019-02-18T12:39:30.903Z,8098
2019-02-18T12:42:30.707Z,8019
2019-02-18T12:45:31.167Z,7898
2019-02-18T12:48:32.023Z,7716
2019-02-18T12:51:30.798Z,7452
2019-02-18T12:54:30.754Z,7152
2019-02-18T12:57:30.737Z,6981
2019-02-18T13:00:40.559Z,6871
2019-02-18T13:03:36.434Z,6781
2019-02-18T13:06:31.219Z,6753
2019-02-18T13:09:31.988Z,6662
2019-02-18T13:12:41.292Z,6658
2019-02-18T13:15:31.430Z,6598
2019-02-18T13:18:32.627Z,6575
2019-02-18T13:21:36.208Z,6552
2019-02-18T13:24:30.980Z,6499
2019-02-18T13:27:30.508Z,6495
2019-02-18T13:30:36.313Z,6442
2019-02-18T13:33:31.017Z,6381
2019-02-18T13:36:30.714Z,6335
2019-02-18T13:39:31.428Z,6305
2019-02-18T13:42:31.101Z,6280
2019-02-18T13:45:31.160Z,6211
2019-02-18T13:48:30.763Z,6148
2019-02-18T13:51:39.858Z,6072
2019-02-18T13:54:30.486Z,6032
2019-02-18T13:57:31.574Z,5959
2019-02-18T14:00:30.952Z,5895
2019-02-18T14:03:30.886Z,5858
2019-02-18T14:06:30.621Z,5736
2019-02-18T14:09:31.798Z,5629
2019-02-18T14:12:33.202Z,5567
2019-02-18T14:15:31.178Z,5422
2019-02-18T14:18:31.129Z,5335
2019-02-18T14:21:32.466Z,5239
2019-02-18T14:24:31.129Z,5148
2019-02-18T14:27:30.752Z,5032
2019-02-18T14:30:31.819Z,4929
2019-02-18T14:33:30.495Z,4800
2019-02-18T14:36:31.651Z,4688
2019-02-18T14:39:33.005Z,4552
2019-02-18T14:42:31.099Z,4437
2019-02-18T14:45:30.726Z,4289
2019-02-18T14:48:31.484Z,4157
2019-02-18T14:51:31.386Z,4051
2019-02-18T14:54:31.304Z,3718
2019-02-18T14:57:31.567Z,3358
2019-02-18T15:00:31.096Z,3147
2019-02-18T15:03:30.818Z,3470
2019-02-18T15:18:52.598Z,1890
2019-02-18T15:21:33.041Z,1841
2019-02-18T15:24:32.066Z,1815
2019-02-18T15:27:32.116Z,1870
2019-02-18T15:30:32.240Z,1808
2019-02-18T15:33:32.566Z,1989
2019-02-18T15:36:32.554Z,1865
2019-02-18T15:39:32.310Z,2276
2019-02-18T15:42:32.038Z,2163
2019-02-18T15:45:33.077Z,1797
2019-02-18T16:17:57.947Z,1053
2019-02-18T16:45:38.319Z,193
2019-02-18T16:45:38.362Z,193
2019-02-18T16:46:09.957Z,176
2019-02-18T16:46:54.494Z,168
2019-02-18T16:48:31.358Z,158
2019-02-18T16:48:39.903Z,137
2019-02-18T16:51:30.631Z,134
2019-02-18T16:54:31.660Z,102
2019-02-18T16:57:31.463Z,73
2019-02-18T17:00:33.793Z,50
2019-02-18T17:03:30.521Z,32
2019-02-18T17:06:31.188Z,19
2019-02-18T17:09:30.641Z,12
2019-02-18T17:12:31.318Z,7
2019-02-18T17:15:30.866Z,3
2019-02-18T17:18:30.978Z,2
2019-02-18T17:21:30.550Z,1
2019-02-18T17:24:31.191Z,0
2019-02-18T17:27:30.846Z,0
2019-02-18T17:30:30.492Z,0
2019-02-18T17:33:31.218Z,0
2019-02-18T17:36:30.954Z,0
2019-02-18T17:39:30.587Z,0
2019-02-18T17:42:31.682Z,0
2019-02-18T17:45:30.520Z,0
2019-02-18T17:48:33.013Z,0
2019-02-18T17:51:30.673Z,0
2019-02-18T17:54:31.490Z,0
2019-02-18T17:57:31.537Z,0
2019-02-18T18:00:32.834Z,0
2019-02-18T18:03:30.718Z,0
2019-02-18T18:06:31.591Z,0
2019-02-18T18:09:31.357Z,0
2019-02-18T18:12:31.411Z,0
2019-02-18T18:15:31.323Z,0
2019-02-18T18:18:31.238Z,0
2019-02-18T18:21:30.881Z,0
2019-02-18T18:24:30.634Z,0
2019-02-18T18:27:31.814Z,0
2019-02-18T18:30:30.608Z,0
2019-02-18T18:33:31.588Z,0
2019-02-18T18:36:31.476Z,0
2019-02-18T18:39:31.026Z,0
2019-02-18T18:42:31.451Z,0
2019-02-18T18:45:31.350Z,0
2019-02-18T18:48:31.003Z,0
2019-02-18T18:51:30.446Z,0
2019-02-18T18:54:30.978Z,0
2019-02-18T18:57:30.446Z,0
2019-02-18T19:00:31.745Z,0
2019-02-18T19:03:30.728Z,0
2019-02-18T19:06:31.726Z,0
2019-02-18T19:09:31.346Z,0
2019-02-18T19:12:30.862Z,0
2019-02-18T19:15:30.830Z,0
2019-02-18T19:18:30.756Z,0
2019-02-18T19:21:31.365Z,0
2019-02-18T19:24:31.551Z,0
2019-02-18T19:27:31.146Z,0
2019-02-18T19:30:31.805Z,0
2019-02-18T19:33:30.179Z,0
2019-02-18T19:36:32.268Z,0
2019-02-18T19:39:31.176Z,0
2019-02-18T19:42:30.945Z,0
2019-02-18T19:45:31.017Z,0
2019-02-18T19:48:30.398Z,0
2019-02-18T19:51:30.995Z,0
2019-02-18T19:54:30.665Z,0
2019-02-18T19:57:31.299Z,0
2019-02-18T20:00:30.976Z,0
2019-02-18T20:03:30.643Z,0
2019-02-18T20:06:30.568Z,0
2019-02-18T20:09:31.440Z,0
2019-02-18T20:12:31.076Z,0
2019-02-18T20:15:30.809Z,0
2019-02-18T20:18:30.669Z,0
2019-02-18T20:21:31.262Z,0
2019-02-18T20:24:30.898Z,0
2019-02-18T20:27:30.381Z,0
2019-02-18T20:30:30.654Z,0
2019-02-18T20:33:31.444Z,0
2019-02-18T20:36:31.221Z,0
2019-02-18T20:39:30.724Z,0
2019-02-18T20:42:32.883Z,0
2019-02-18T20:45:30.569Z,0
2019-02-18T20:48:31.427Z,0
2019-02-18T20:51:31.129Z,0
2019-02-18T20:54:30.678Z,0
2019-02-18T20:57:31.280Z,0
2019-02-18T21:00:30.906Z,0
2019-02-18T21:03:30.755Z,0
2019-02-18T21:06:31.261Z,0
2019-02-18T21:09:31.364Z,0
2019-02-18T21:12:37.083Z,0
2019-02-18T21:15:30.622Z,0
2019-02-18T21:18:31.266Z,0
2019-02-18T21:21:31.206Z,0
2019-02-18T21:24:30.984Z,0
2019-02-18T21:27:30.614Z,0
2019-02-18T21:30:31.106Z,0
2019-02-18T21:33:30.705Z,0
2019-02-18T21:36:31.228Z,0
2019-02-18T21:39:31.007Z,0
2019-02-18T21:42:30.554Z,0
2019-02-18T21:45:32.567Z,0
2019-02-18T21:48:30.626Z,0
2019-02-18T21:51:31.387Z,0
2019-02-18T21:54:31.100Z,0
2019-02-18T21:57:30.933Z,0
2019-02-18T22:00:30.858Z,0
2019-02-18T22:03:30.642Z,0
2019-02-18T22:06:31.303Z,0
2019-02-18T22:09:31.063Z,0
2019-02-18T22:12:30.575Z,0
2019-02-18T22:15:31.257Z,0
2019-02-18T22:18:30.972Z,0
2019-02-18T22:21:30.604Z,0
2019-02-18T22:24:30.976Z,0
2019-02-18T22:27:30.408Z,0
2019-02-18T22:30:31.351Z,0
2019-02-18T22:33:31.198Z,0
2019-02-18T22:36:30.997Z,0
2019-02-18T22:39:30.431Z,0
2019-02-18T22:42:30.909Z,0
2019-02-18T22:45:30.546Z,0
2019-02-18T22:48:30.126Z,0
2019-02-18T22:51:30.848Z,0
2019-02-18T22:54:30.365Z,0
2019-02-18T22:57:30.722Z,0
2019-02-18T23:00:43.508Z,0
2019-02-18T23:03:31.205Z,0
2019-02-18T23:06:30.953Z,0
2019-02-18T23:09:30.380Z,0
2019-02-18T23:12:30.752Z,0
2019-02-18T23:15:31.339Z,0
2019-02-18T23:18:30.994Z,0
2019-02-18T23:21:30.561Z,0
2019-02-18T23:24:30.879Z,0
2019-02-18T23:27:30.254Z,0
2019-02-18T23:30:30.947Z,0
2019-02-18T23:33:31.013Z,0
2019-02-18T23:36:30.455Z,0
2019-02-18T23:39:30.771Z,0
2019-02-18T23:42:31.143Z,0
2019-02-18T23:45:30.649Z,0
2019-02-18T23:48:31.094Z,0
2019-02-18T23:51:30.456Z,0
2019-02-18T23:54:30.890Z,0
2019-02-18T23:57:30.426Z,0
